Ishoj, Denmark
Current Conditions -  °F | °C
As of 1:20 PM on Thursday 18 Dec 2014 (Local Time) from EKRK Reporting Station
Rain Showers Rain Showers  
Wind Chill: 42°   Ceiling: 400
Heat Index: 48°   Visibility: 6mi
Dew Point: 46°   Wind: 15mph
Humidity: 93%   Direction: 230°SW
Pressure: 29.5"   Gusts: NA
Location:  55.62°N, 12.35°E
Report Text: EKRK 181220Z AUTO 23013KT 9999NDV -SHRA BKN004/// OVC006///09/08 Q0999
Loading
Personal Weather Stations






























Interactive Weather Map New forecast layout! Learn more

10-Day Weather Forecast

Advertisements
Track Severe Weather on mobile